Weather observations for the past three days for
Sulphur Springs, Sulphur Springs Municipal Airport
Imperial (Metric)
Date Time (cdt) Wind (mph) Vis. (mi.) Weather Sky Cond. Temperature (ºF) Relative Humidity Wind Chill (°F) Heat Index (°F) Pressure Precipitation (in)
Air Dwpt 6 hour altimeter (in) sea level (mb) 1 hr 3 hr 6 hr
Max. Min.
05 18:35 S 12 10.00 Partly Cloudy SCT033 SCT039 81.9 69.1 65% 85 29.69 0.0
05 18:15 S 14 10.00 Partly Cloudy SCT036 82.2 68.9 64% 86 29.69 0.0
05 17:55 S 13 G 18 10.00 Fair CLR 84 68.7 60% 88 29.67 0.0
05 17:35 S 14 10.00 Fair CLR 83.3 68.9 62% 87 29.68 0.0
05 17:15 SW 13 10.00 Partly Cloudy SCT033 82.9 69.1 63% 87 29.69 0.0
05 16:55 SW 13 G 18 10.00 Partly Cloudy SCT033 84.7 69.6 61% 89 29.69 0.0
05 16:35 SW 14 G 20 10.00 Partly Cloudy SCT033 84 68.5 60% 87 29.69 0.0
05 16:15 SW 13 G 21 10.00 Partly Cloudy SCT033 84.4 69.1 60% 88 29.69 0.0
05 15:55 SW 17 G 23 10.00 Fair CLR 83.8 68.5 60% 87 29.69 0.0
05 15:35 SW 18 G 24 10.00 Fair CLR 82.9 68.9 63% 86 29.7 0.0
05 15:15 SW 17 G 23 10.00 Partly Cloudy SCT028 82.4 68.7 63% 86 29.7 0.0
05 14:55 SW 17 G 25 10.00 Partly Cloudy SCT027 81.9 68.9 65% 85 29.7 0.0
05 14:35 SW 20 G 24 10.00 Mostly Cloudy BKN027 80.6 68 66% 83 29.71 0.0
05 14:15 SW 15 G 21 10.00 Mostly Cloudy BKN027 BKN033 79.9 68 67% 82 29.71 0.0
05 13:55 S 17 G 26 10.00 Partly Cloudy SCT027 SCT033 80.1 68.2 67% 83 29.71 0.0
05 13:35 S 17 G 25 10.00 Partly Cloudy SCT027 79.9 67.5 66% 82 29.71 0.0
05 13:15 S 23 G 32 10.00 Partly Cloudy and Breezy SCT027 80.6 67.1 64% 83 29.7 0.0
05 12:55 S 21 G 31 10.00 Mostly Cloudy and Breezy BKN027 80.6 67.3 80.6 70.7 64% 83 29.71 0.0
05 12:15 SW 20 G 29 10.00 Mostly Cloudy BKN025 78.3 66.9 68% 80 29.73 0.0
05 11:55 S 20 G 28 10.00 Mostly Cloudy BKN025 78.8 67.1 67% 81 29.72 0.0
05 11:35 S 25 G 33 10.00 Mostly Cloudy and Breezy BKN021 77.9 66.7 69% 80 29.71 0.0
05 11:15 S 24 G 31 10.00 Mostly Cloudy and Breezy BKN021 76.8 66.9 72% 79 29.7 0.0
05 10:55 S 21 G 31 10.00 Mostly Cloudy and Breezy BKN021 75.7 66.7 74% 77 29.71 0.0
05 10:35 S 26 G 35 10.00 Overcast and Windy OVC021 75.4 66.9 75% 77 29.71 0.0
05 10:15 S 25 G 32 10.00 Overcast and Breezy OVC019 74.5 66.9 77% 29.71 0.0
05 09:55 S 22 G 26 10.00 Overcast and Breezy OVC019 73.9 67.3 80% 29.71 0.0
05 09:35 S 21 G 30 10.00 Overcast and Breezy OVC019 72.9 67.1 82% 29.71 0.0
05 09:15 S 22 G 26 10.00 Overcast and Breezy OVC019 72.5 67.1 83% 29.71 0.0
05 08:55 S 20 G 28 10.00 Overcast OVC021 72 66.7 84% 29.71 0.0
05 08:35 S 20 G 28 10.00 Overcast SCT018 OVC026 71.8 66.7 84% 29.71 0.0
05 08:15 S 22 10.00 Overcast and Breezy OVC018 71.1 66.6 86% 29.71 0.0
05 07:55 S 16 G 22 10.00 Overcast OVC018 70.9 66.4 86% 29.71 0.0
05 07:35 SW 15 G 24 10.00 Overcast OVC018 70.7 66.4 86% 29.71 0.0
05 07:15 S 20 G 28 10.00 Overcast OVC020 70.7 66.2 86% 29.7 0.0
05 06:55 S 18 G 28 10.00 Overcast OVC020 70.7 65.8 72.5 70.7 85% 29.69 0.0
05 06:35 S 18 G 24 10.00 Overcast OVC022 70.7 65.7 84% 29.68 0.0
05 06:15 S 16 G 26 10.00 Overcast OVC022 70.9 65.5 83% 29.69 0.0
05 05:55 S 17 G 26 10.00 Overcast OVC022 70.9 65.5 83% 29.69 0.0
05 05:15 S 20 G 25 10.00 Overcast OVC020 71.1 65.7 83% 29.69 0.0
05 04:55 S 20 G 23 10.00 Overcast OVC018 71.1 65.5 83% 29.7 0.0
05 04:35 S 20 G 23 10.00 Overcast OVC018 70.9 65.3 83% 29.69 0.0
05 04:15 S 17 G 23 10.00 Overcast OVC018 70.9 65.3 83% 29.7 0.0
05 03:55 S 18 G 26 10.00 Overcast OVC018 70.9 64.9 82% 29.69 0.0
05 03:35 S 16 G 25 10.00 Overcast OVC020 70.9 64.6 81% 29.7 0.0
05 03:15 S 20 G 23 10.00 Mostly Cloudy BKN022 70.9 64.4 80% 29.7 0.0
05 02:55 S 17 G 26 10.00 Partly Cloudy SCT022 71.1 64.2 79% 29.71 0.0
05 02:35 S 21 G 25 10.00 Fair and Breezy CLR 71.6 63.9 77% 29.71 0.0
05 02:15 S 20 G 25 10.00 Fair CLR 71.8 63.9 76% 29.71 0.0
05 01:55 S 17 G 26 10.00 Fair CLR 71.8 63.5 75% 29.72 0.0
05 01:35 S 18 G 30 10.00 Fair CLR 72.5 63.5 73% 29.73 0.0
05 01:15 S 15 G 23 10.00 Fair CLR 72.5 63.1 73% 29.74 0.0
05 00:55 S 16 G 24 10.00 Fair CLR 72.5 62.6 77.7 72.1 71% 29.74 0.0
05 00:35 S 14 G 23 10.00 Fair CLR 72.3 62.2 71% 29.74 0.0
05 00:15 S 14 G 23 10.00 Fair CLR 72.5 61.7 69% 29.74 0.0
04 23:55 S 15 G 22 10.00 Fair CLR 72.5 61.7 69% 29.75 0.0
04 23:35 S 14 G 23 10.00 Fair CLR 72.5 61 67% 29.75 0.0
04 23:15 S 10 G 18 10.00 Fair CLR 72.5 60.8 67% 29.76 0.0
04 22:55 S 9 G 18 10.00 Fair CLR 72.9 60.6 66% 29.76 0.0
04 22:35 S 12 G 17 10.00 Fair CLR 73 60.1 64% 29.76 0.0
04 22:15 S 12 G 17 10.00 Fair CLR 73.2 59.9 63% 29.77 0.0
04 21:55 S 10 10.00 Fair CLR 73.4 59.9 63% 29.77 0.0
04 21:35 S 13 G 17 10.00 Fair CLR 73.8 59.5 61% 29.76 0.0
04 21:15 S 8 10.00 Fair CLR 73.8 59.4 61% 29.76 0.0
04 20:55 S 13 G 16 10.00 Fair CLR 73.9 59 60% 29.76 0.0
04 20:35 S 12 10.00 Fair CLR 74.5 58.6 58% 29.76 0.0
04 20:15 S 12 10.00 Fair CLR 75.2 58.3 56% 78 29.76 0.0
04 19:55 S 9 10.00 Fair CLR 75.4 57.7 54% 78 29.76 0.0
04 19:35 S 12 10.00 Fair CLR 76.5 57 51% 78 29.75 0.0
04 19:15 S 15 10.00 Fair CLR 77.2 56.3 49% 79 29.75 0.0
04 18:55 S 18 G 24 10.00 Fair CLR 77.9 56.1 80.8 75.7 47% 79 29.76 0.0
04 18:35 S 15 G 20 10.00 Fair CLR 78.1 56.1 47% 79 29.77 0.0
04 18:15 S 14 G 20 10.00 Fair CLR 79.2 55.6 44% 80 29.78 0.0
04 17:55 S 20 G 25 10.00 Fair CLR 79.5 54.5 42% 80 29.78 0.0
04 17:35 S 16 G 22 10.00 Fair CLR 79.7 54.7 42% 80 29.79 0.0
04 17:15 S 15 G 25 10.00 Fair CLR 80.1 54.9 42% 80 29.79 0.0
04 16:55 S 13 G 26 10.00 Fair CLR 80.1 54 41% 80 29.8 0.0
04 16:35 S 18 G 24 10.00 Fair CLR 80.8 54 40% 80 29.81 0.0
04 16:15 S 14 G 25 10.00 Fair CLR 80.4 52.7 38% 80 29.81 0.0
04 15:55 S 16 G 24 10.00 Fair CLR 79.7 52.7 39% 80 29.83 0.0
04 15:35 S 17 G 25 10.00 Fair CLR 78.4 52.2 40% 79 29.84 0.0
04 15:15 S 16 G 23 10.00 Fair CLR 78.8 51.6 39% 79 29.85 0.0
04 14:55 S 17 G 24 10.00 Fair CLR 78.6 51.6 39% 79 29.86 0.0
04 14:35 S 16 G 23 10.00 Fair CLR 78.3 52 40% 79 29.87 0.0
04 14:15 SE 15 G 20 10.00 Fair CLR 78.6 52.2 40% 79 29.88 0.0
04 13:55 S 16 G 24 10.00 Fair CLR 77.4 51.8 41% 78 29.89 0.0
04 13:35 S 15 G 23 10.00 Fair CLR 77.4 51.4 40% 78 29.9 0.0
04 13:15 S 17 G 24 10.00 Fair CLR 76.5 50.7 41% 78 29.91 0.0
04 12:55 S 17 G 24 10.00 Fair CLR 75.6 50.4 76.1 59.5 41% 78 29.92 0.0
04 12:35 S 17 G 22 10.00 Fair CLR 75.9 50.7 41% 78 29.93 0.0
04 12:15 S 16 10.00 Fair CLR 75 50 42% 78 29.94 0.0
04 11:55 S 21 G 26 10.00 Fair and Breezy CLR 74.7 49.6 41% 29.95 0.0
04 11:35 S 18 G 29 10.00 Fair CLR 73.9 49.1 42% 29.95 0.0
04 11:15 S 17 G 24 10.00 Fair CLR 73.4 50.5 45% 29.95 0.0
04 10:55 S 24 G 29 10.00 Fair and Breezy CLR 72.9 50.2 45% 29.95 0.0
04 10:35 S 23 G 29 10.00 Fair and Breezy CLR 71.8 50.7 48% 29.96 0.0
04 10:15 S 22 G 28 10.00 Fair and Breezy CLR 70.5 50.7 50% 29.96 0.0
04 09:55 S 21 G 28 10.00 Fair and Breezy CLR 69.8 51.1 52% 29.96 0.0
04 09:35 S 17 G 28 10.00 Fair CLR 68.9 52.2 55% 29.97 0.0
04 09:15 S 21 G 25 10.00 Fair and Breezy CLR 67.8 52.3 58% 29.97 0.0
04 08:55 S 16 10.00 Fair CLR 66.2 52.5 62% 29.97 0.0
04 08:35 SW 15 G 23 10.00 Fair CLR 64.8 52.7 65% 29.98 0.0
04 08:15 S 14 G 17 10.00 Fair CLR 63.5 52.7 68% 29.97 0.0
04 07:55 S 15 10.00 Fair CLR 62.6 52.7 70% 29.98 0.0
04 07:35 S 10 10.00 Fair CLR 61.2 52.3 73% 29.97 0.0
04 07:15 S 9 10.00 Fair CLR 59.9 52.2 76% 29.97 0.0
04 06:55 S 7 10.00 Fair CLR 59.5 51.8 63.5 59 76% 29.96 0.0
04 06:35 S 8 10.00 Fair CLR 59 51.8 77% 29.96 0.0
04 06:15 S 8 10.00 Fair CLR 59.4 51.4 75% 29.96 0.0
04 05:55 S 10 10.00 Fair CLR 59.5 51.4 75% 29.96 0.0
04 05:35 S 10 10.00 Fair CLR 59.9 51.4 74% 29.96 0.0
04 05:15 S 9 10.00 Fair CLR 60.1 50.9 72% 29.96 0.0
04 04:55 S 8 10.00 Fair CLR 60.8 50.5 69% 29.97 0.0
04 04:35 S 9 10.00 Fair CLR 61.2 50.2 67% 29.97 0.0
04 04:15 S 9 10.00 Fair CLR 61.7 49.8 65% 29.98 0.0
04 03:55 S 12 10.00 Fair CLR 62.6 49.1 62% 29.97 0.0
04 03:35 S 10 10.00 Fair CLR 61.9 49.6 64% 29.98 0.0
04 03:15 S 6 10.00 Fair CLR 62.6 49.5 62% 29.97 0.0
04 02:55 S 8 10.00 Fair CLR 62.8 49.3 62% 29.98 0.0
04 02:35 S 9 10.00 Fair CLR 63 49.5 62% 29.98 0.0
04 02:15 S 9 10.00 Fair CLR 63.3 49.6 61% 29.99 0.0
04 01:55 S 8 10.00 Fair CLR 63.3 50 62% 30 0.0
04 01:35 S 7 10.00 Fair CLR 63.5 50.2 62% 30.01 0.0
04 01:15 S 8 10.00 Fair CLR 63.5 50.2 62% 30.02 0.0
04 00:55 S 7 10.00 Fair CLR 63.3 50.2 77 63.3 62% 30.02 0.0
04 00:35 S 7 10.00 Fair CLR 64.2 49.6 59% 30.03 0.0
04 00:15 S 8 10.00 Fair CLR 64.6 49.5 58% 30.03 0.0
03 23:55 S 9 10.00 Fair CLR 65.5 49.1 56% 30.04 0.0
03 23:35 S 7 10.00 Fair CLR 65.8 48.6 54% 30.04 0.0
03 23:15 S 8 10.00 Fair CLR 65.7 48.4 54% 30.04 0.0
03 22:55 S 6 10.00 Fair CLR 64.9 48.9 56% 30.03 0.0
03 22:35 S 6 10.00 Fair CLR 67.3 47.7 50% 30.03 0.0
03 22:15 S 6 10.00 Fair CLR 68.2 47.1 47% 30.03 0.0
03 21:55 S 9 10.00 Fair CLR 69.1 46.4 44% 30.03 0.0
03 21:35 S 8 10.00 Fair CLR 69.3 47.3 46% 30.03 0.0
03 21:15 S 8 10.00 Fair CLR 69.6 47.7 46% 30.03 0.0
03 20:55 S 7 10.00 Fair CLR 70.3 48.2 45% 30.03 0.0
03 20:35 S 6 10.00 Fair CLR 71.6 48.2 44% 30.03 0.0
03 20:15 S 7 10.00 Fair CLR 72.5 47.7 41% 30.03 0.0
03 19:55 S 6 10.00 Fair CLR 72.9 48 41% 30.02 0.0
03 19:35 S 7 10.00 Fair CLR 74.1 48.6 41% 30.02 0.0
03 19:15 S 9 10.00 Fair CLR 76.1 46.4 35% 78 30.02 0.0
03 18:55 S 10 10.00 Fair CLR 77.2 45.7 81 77.2 33% 78 30.03 0.0
03 18:35 SW 10 10.00 Fair CLR 77.9 45 31% 78 30.03 0.0
03 18:15 SW 10 10.00 Fair CLR 78.8 43.9 29% 78 30.03 0.0
03 17:55 SW 15 10.00 Fair CLR 79 44.1 29% 79 30.03 0.0
03 17:35 SW 12 10.00 Fair CLR 79.3 45.9 31% 79 30.04 0.0
03 17:15 SW 12 G 17 10.00 Fair CLR 80.1 47.3 32% 79 30.04 0.0
03 16:55 SW 10 G 18 10.00 Partly Cloudy SCT075 80.1 46.2 30% 79 30.04 0.0
03 16:35 SW 13 10.00 Fair CLR 80.6 45.5 29% 79 30.05 0.0
03 16:15 SW 9 10.00 Fair CLR 80.8 45.7 29% 80 30.06 0.0
03 15:55 SW 15 10.00 Partly Cloudy SCT075 80.6 47.3 31% 80 30.06 0.0
03 15:35 SW 10 10.00 Partly Cloudy SCT075 80.1 48.7 33% 79 30.08 0.0
03 15:15 S 12 G 17 10.00 Fair CLR 79.7 47.5 32% 79 30.09 0.0
03 14:55 SW 13 G 17 10.00 Fair CLR 79.7 48.6 34% 79 30.09 0.0
03 14:35 S 12 10.00 Fair CLR 79.7 50.2 36% 79 30.1 0.0
03 14:15 SW 10 G 21 10.00 Fair CLR 79.3 51.3 38% 79 30.11 0.0
03 13:55 SW 12 G 21 10.00 Fair CLR 78.8 51.4 39% 79 30.12 0.0
03 13:35 SW 13 G 21 10.00 Fair CLR 78.3 51.6 40% 79 30.13 0.0
03 13:15 SW 10 G 18 10.00 Fair CLR 78.1 50.9 39% 79 30.14 0.0
03 12:55 SW 12 10.00 Fair CLR 77.9 52.5 77.9 54.7 41% 79 30.15 0.0
03 12:35 SW 10 10.00 Fair CLR 77 50.7 40% 78 30.16 0.0
03 12:15 SW 14 G 20 10.00 Fair CLR 76.3 50.5 41% 78 30.17 0.0
03 11:55 SW 13 10.00 Fair CLR 75.4 51.1 43% 78 30.17 0.0
03 11:35 SW 13 G 20 10.00 Fair CLR 75.4 51.6 44% 78 30.18 0.0
03 11:15 SW 14 G 20 10.00 Fair CLR 74.3 52.2 46% 30.18 0.0
03 10:55 SW 14 G 18 10.00 Fair CLR 73.6 52.5 48% 30.18 0.0
03 10:35 SW 12 G 20 10.00 Fair CLR 72.7 51.6 48% 30.18 0.0
03 10:15 SW 14 10.00 Fair CLR 71.2 52.3 51% 30.18 0.0
03 09:55 SW 12 10.00 Fair CLR 69.8 53.1 55% 30.19 0.0
03 09:35 SW 10 10.00 Fair CLR 68.4 52.9 58% 30.19 0.0
03 09:15 SW 9 10.00 Fair CLR 67.5 52.7 59% 30.18 0.0
03 08:55 SW 9 10.00 Fair CLR 65.3 52.5 64% 30.18 0.0
03 08:35 SW 9 10.00 Fair CLR 63.1 52.3 68% 30.18 0.0
03 08:15 S 6 10.00 Fair CLR 60.8 53.1 76% 30.18 0.0
03 07:55 S 6 10.00 Fair CLR 59 52.5 79% 30.18 0.0
03 07:35 S 6 10.00 Fair CLR 57 52 83% 30.18 0.0
03 07:15 S 6 10.00 Fair CLR 55.6 50.9 84% 30.17 0.0
03 06:55 S 6 10.00 Fair CLR 54.9 49.6 60.1 53.6 83% 30.17 0.0
03 06:35 S 3 10.00 Fair CLR 54.7 49.1 82% 30.17 0.0
03 06:15 S 3 10.00 Fair CLR 55 49.1 81% 30.16 0.0
03 05:55 S 5 10.00 Fair CLR 55.6 48.9 78% 30.15 0.0
03 05:35 Calm 10.00 Fair CLR 55.6 48.6 77% 30.15 0.0
03 05:15 S 3 10.00 Fair CLR 54.5 49.8 84% 30.15 0.0
03 04:55 Calm 10.00 Fair CLR 54.5 50.4 86% 30.15 0.0
03 04:35 Calm 10.00 Fair CLR 53.6 51.1 91% 30.15 0.0
03 04:15 Calm 10.00 Fair CLR 53.6 51.3 92% 30.15 0.0
03 03:55 Calm 10.00 Fair CLR 53.6 52 94% 30.14 0.0
03 03:35 Calm 10.00 Fair CLR 53.8 52.2 94% 30.14 0.0
03 03:15 Calm 10.00 Fair CLR 55.2 51.3 87% 30.15 0.0
03 02:55 Calm 10.00 Fair CLR 56.1 51.8 86% 30.15 0.0
03 02:35 Calm 10.00 Partly Cloudy SCT080 55.8 52 87% 30.15 0.0
03 02:15 Calm 10.00 Partly Cloudy SCT080 56.1 51.8 86% 30.15 0.0
03 01:55 Calm 10.00 Fair CLR 57 51.8 83% 30.15 0.0
03 01:35 Calm 10.00 Fair CLR 57 51.6 82% 30.15 0.0
03 01:15 Calm 10.00 Fair CLR 57.4 51.8 82% 30.15 0.0
03 00:55 S 3 10.00 Fair CLR 60.1 50.5 71.8 58.3 71% 30.14 0.0
03 00:35 S 3 10.00 Fair CLR 59 49.8 72% 30.15 0.0
03 00:15 S 5 10.00 Fair CLR 59.9 49.5 69% 30.14 0.0
02 23:55 S 3 10.00 Fair CLR 60.3 49.3 67% 30.14 0.0
02 23:35 S 3 10.00 Fair CLR 60.1 49.1 67% 30.14 0.0
02 23:15 S 5 10.00 Fair CLR 59.2 50.2 72% 30.14 0.0
02 22:55 SE 3 10.00 Fair CLR 59.9 49.6 69% 30.14 0.0
02 22:35 Calm 7.00 Fair CLR 59.2 51.6 76% 30.14 0.0
02 22:15 Calm 7.00 Fair CLR 60.6 50.2 69% 30.14 0.0
02 21:55 Calm 10.00 Fair CLR 62.6 49.5 62% 30.14 0.0
02 21:35 SE 3 10.00 Fair CLR 62.8 50.2 64% 30.13 0.0
02 21:15 S 3 10.00 Fair CLR 62.6 52.2 69% 30.13 0.0
02 20:55 Calm 10.00 Fair CLR 63.9 51.3 64% 30.12 0.0
02 20:35 Calm 10.00 Fair CLR 66.4 50.2 56% 30.12 0.0
02 20:15 Calm 7.00 Fair CLR 67.3 48.7 52% 30.11 0.0
02 19:55 Calm 10.00 Fair CLR 70.5 45.5 41% 30.11 0.0
02 19:35 Calm 10.00 Fair CLR 70.7 46.9 43% 30.1 0.0
02 19:15 Calm 10.00 Fair CLR 71.6 47.5 42% 30.1 0.0
02 18:55 N 7 10.00 Fair CLR 72 46.6 74.3 71.1 41% 30.1 0.0
Date Time (cdt) Wind (mph) Vis. (mi.) Weather Sky Cond. Air Dwpt Max. Min. Relative Humidity Wind Chill (°F) Heat Index (°F) altimeter (in) sea level (mb) 1 hr 3 hr 6 hr
6 hour
Temperature (ºF) Pressure Precipitation (in)